sensor_id;sensor_type;location;lat;lon;timestamp;temperature;humidity
2867;DHT22;1441;48.886;8.728;2023-02-13T00:00:33;3.60;99.90
2867;DHT22;1441;48.886;8.728;2023-02-13T00:02:59;3.60;99.90
2867;DHT22;1441;48.886;8.728;2023-02-13T00:05:25;3.70;99.90
2867;DHT22;1441;48.886;8.728;2023-02-13T00:07:50;3.70;99.90
2867;DHT22;1441;48.886;8.728;2023-02-13T00:10:16;3.70;99.90
2867;DHT22;1441;48.886;8.728;2023-02-13T00:12:41;3.80;99.90
2867;DHT22;1441;48.886;8.728;2023-02-13T00:15:08;3.80;99.90
2867;DHT22;1441;48.886;8.728;2023-02-13T00:17:34;3.80;99.90
2867;DHT22;1441;48.886;8.728;2023-02-13T00:19:59;3.80;99.90
2867;DHT22;1441;48.886;8.728;2023-02-13T00:22:25;3.80;99.90
2867;DHT22;1441;48.886;8.728;2023-02-13T00:24:51;3.80;99.90
2867;DHT22;1441;48.886;8.728;2023-02-13T00:27:16;3.70;99.90
2867;DHT22;1441;48.886;8.728;2023-02-13T00:29:42;3.70;99.90
2867;DHT22;1441;48.886;8.728;2023-02-13T00:32:08;3.50;99.90
2867;DHT22;1441;48.886;8.728;2023-02-13T00:34:33;3.40;99.90
2867;DHT22;1441;48.886;8.728;2023-02-13T00:36:59;3.40;99.90
2867;DHT22;1441;48.886;8.728;2023-02-13T00:39:24;3.50;99.90
2867;DHT22;1441;48.886;8.728;2023-02-13T00:41:50;3.50;99.90
2867;DHT22;1441;48.886;8.728;2023-02-13T00:44:15;3.50;99.90
2867;DHT22;1441;48.886;8.728;2023-02-13T00:46:41;3.50;99.90
2867;DHT22;1441;48.886;8.728;2023-02-13T00:49:07;3.40;99.90
2867;DHT22;1441;48.886;8.728;2023-02-13T00:51:32;3.30;99.90
2867;DHT22;1441;48.886;8.728;2023-02-13T00:53:58;3.30;99.90
2867;DHT22;1441;48.886;8.728;2023-02-13T00:56:23;3.30;99.90
2867;DHT22;1441;48.886;8.728;2023-02-13T00:58:49;3.30;99.90
2867;DHT22;1441;48.886;8.728;2023-02-13T01:01:14;3.30;99.90
2867;DHT22;1441;48.886;8.728;2023-02-13T01:03:40;3.20;99.90
2867;DHT22;1441;48.886;8.728;2023-02-13T01:06:06;3.20;99.90
2867;DHT22;1441;48.886;8.728;2023-02-13T01:08:33;3.20;99.90
2867;DHT22;1441;48.886;8.728;2023-02-13T01:10:58;3.10;99.90
2867;DHT22;1441;48.886;8.728;2023-02-13T01:13:25;3.10;99.90
2867;DHT22;1441;48.886;8.728;2023-02-13T01:15:51;3.00;99.90
2867;DHT22;1441;48.886;8.728;2023-02-13T01:18:18;3.00;99.90
2867;DHT22;1441;48.886;8.728;2023-02-13T01:20:45;3.20;99.90
2867;DHT22;1441;48.886;8.728;2023-02-13T01:23:11;3.10;99.90
2867;DHT22;1441;48.886;8.728;2023-02-13T01:25:41;2.90;99.90
2867;DHT22;1441;48.886;8.728;2023-02-13T01:28:07;2.80;99.90
2867;DHT22;1441;48.886;8.728;2023-02-13T01:30:33;2.80;99.90
2867;DHT22;1441;48.886;8.728;2023-02-13T01:32:58;2.90;99.90
2867;DHT22;1441;48.886;8.728;2023-02-13T01:35:24;2.80;99.90
2867;DHT22;1441;48.886;8.728;2023-02-13T01:37:49;2.90;99.90
2867;DHT22;1441;48.886;8.728;2023-02-13T01:40:15;3.00;99.90
2867;DHT22;1441;48.886;8.728;2023-02-13T01:42:41;3.00;99.90
2867;DHT22;1441;48.886;8.728;2023-02-13T01:45:23;3.00;99.90
2867;DHT22;1441;48.886;8.728;2023-02-13T01:53:24;2.80;99.90
2867;DHT22;1441;48.886;8.728;2023-02-13T01:56:07;2.90;99.90
2867;DHT22;1441;48.886;8.728;2023-02-13T01:58:36;2.80;99.90
2867;DHT22;1441;48.886;8.728;2023-02-13T02:01:05;2.80;99.90
2867;DHT22;1441;48.886;8.728;2023-02-13T02:06:02;2.80;99.90
2867;DHT22;1441;48.886;8.728;2023-02-13T02:08:29;2.80;99.90
2867;DHT22;1441;48.886;8.728;2023-02-13T02:10:59;2.70;99.90
2867;DHT22;1441;48.886;8.728;2023-02-13T02:13:26;2.70;99.90
2867;DHT22;1441;48.886;8.728;2023-02-13T02:15:52;2.80;99.90
2867;DHT22;1441;48.886;8.728;2023-02-13T02:18:22;2.70;99.90
2867;DHT22;1441;48.886;8.728;2023-02-13T02:24:04;2.70;99.90
2867;DHT22;1441;48.886;8.728;2023-02-13T02:26:58;2.70;99.90
2867;DHT22;1441;48.886;8.728;2023-02-13T02:35:18;2.60;99.90
2867;DHT22;1441;48.886;8.728;2023-02-13T02:38:19;2.50;99.90
2867;DHT22;1441;48.886;8.728;2023-02-13T02:41:09;2.50;99.90
2867;DHT22;1441;48.886;8.728;2023-02-13T02:46:52;2.50;99.90
2867;DHT22;1441;48.886;8.728;2023-02-13T02:49:40;2.40;99.90
2867;DHT22;1441;48.886;8.728;2023-02-13T02:58:23;2.30;99.90
2867;DHT22;1441;48.886;8.728;2023-02-13T03:01:15;2.50;99.90
2867;DHT22;1441;48.886;8.728;2023-02-13T03:04:01;2.60;99.90
2867;DHT22;1441;48.886;8.728;2023-02-13T03:06:53;2.50;99.90
2867;DHT22;1441;48.886;8.728;2023-02-13T03:09:28;2.30;99.90
2867;DHT22;1441;48.886;8.728;2023-02-13T03:12:18;2.40;99.90
2867;DHT22;1441;48.886;8.728;2023-02-13T03:15:03;2.40;99.90
2867;DHT22;1441;48.886;8.728;2023-02-13T03:17:29;2.40;99.90
2867;DHT22;1441;48.886;8.728;2023-02-13T03:23:18;2.30;99.90
2867;DHT22;1441;48.886;8.728;2023-02-13T03:36:58;2.40;99.90
2867;DHT22;1441;48.886;8.728;2023-02-13T03:40:07;2.30;99.90
2867;DHT22;1441;48.886;8.728;2023-02-13T03:42:40;2.40;99.90
2867;DHT22;1441;48.886;8.728;2023-02-13T03:45:13;2.40;99.90
2867;DHT22;1441;48.886;8.728;2023-02-13T03:48:00;2.40;99.90
2867;DHT22;1441;48.886;8.728;2023-02-13T03:50:37;2.40;99.90
2867;DHT22;1441;48.886;8.728;2023-02-13T03:53:08;2.60;99.90
2867;DHT22;1441;48.886;8.728;2023-02-13T03:55:41;2.50;99.90
2867;DHT22;1441;48.886;8.728;2023-02-13T03:58:30;2.50;99.90
2867;DHT22;1441;48.886;8.728;2023-02-13T04:01:18;2.20;99.90
2867;DHT22;1441;48.886;8.728;2023-02-13T04:04:09;2.00;99.90
2867;DHT22;1441;48.886;8.728;2023-02-13T04:06:49;2.00;99.90
2867;DHT22;1441;48.886;8.728;2023-02-13T04:09:16;2.00;99.90
2867;DHT22;1441;48.886;8.728;2023-02-13T04:12:34;2.10;99.90
2867;DHT22;1441;48.886;8.728;2023-02-13T04:14:57;2.10;99.90
2867;DHT22;1441;48.886;8.728;2023-02-13T04:17:30;2.20;99.90
2867;DHT22;1441;48.886;8.728;2023-02-13T04:19:58;2.30;99.90
2867;DHT22;1441;48.886;8.728;2023-02-13T04:22:24;2.30;99.90
2867;DHT22;1441;48.886;8.728;2023-02-13T04:24:50;2.30;99.90
2867;DHT22;1441;48.886;8.728;2023-02-13T04:27:16;2.20;99.90
2867;DHT22;1441;48.886;8.728;2023-02-13T04:29:42;2.20;99.90
2867;DHT22;1441;48.886;8.728;2023-02-13T04:32:11;2.20;99.90
2867;DHT22;1441;48.886;8.728;2023-02-13T04:34:38;2.10;99.90
2867;DHT22;1441;48.886;8.728;2023-02-13T04:37:04;2.00;99.90
2867;DHT22;1441;48.886;8.728;2023-02-13T04:39:29;2.00;99.90
2867;DHT22;1441;48.886;8.728;2023-02-13T04:41:55;2.00;99.90
2867;DHT22;1441;48.886;8.728;2023-02-13T04:44:20;2.10;99.90
2867;DHT22;1441;48.886;8.728;2023-02-13T04:46:46;2.20;99.90
2867;DHT22;1441;48.886;8.728;2023-02-13T04:49:11;2.20;99.90
2867;DHT22;1441;48.886;8.728;2023-02-13T04:51:37;2.20;99.90
2867;DHT22;1441;48.886;8.728;2023-02-13T04:54:03;2.20;99.90
2867;DHT22;1441;48.886;8.728;2023-02-13T04:56:28;2.10;99.90
2867;DHT22;1441;48.886;8.728;2023-02-13T04:58:54;2.10;99.90
2867;DHT22;1441;48.886;8.728;2023-02-13T05:01:20;2.10;99.90
2867;DHT22;1441;48.886;8.728;2023-02-13T05:03:46;2.00;99.90
2867;DHT22;1441;48.886;8.728;2023-02-13T05:06:12;2.00;99.90
2867;DHT22;1441;48.886;8.728;2023-02-13T05:08:37;1.90;99.90
2867;DHT22;1441;48.886;8.728;2023-02-13T05:11:03;1.80;99.90
2867;DHT22;1441;48.886;8.728;2023-02-13T05:13:29;1.80;99.90
2867;DHT22;1441;48.886;8.728;2023-02-13T05:15:55;1.90;99.90
2867;DHT22;1441;48.886;8.728;2023-02-13T05:18:20;1.90;99.90
2867;DHT22;1441;48.886;8.728;2023-02-13T05:20:46;1.90;99.90
2867;DHT22;1441;48.886;8.728;2023-02-13T05:23:31;1.90;99.90
2867;DHT22;1441;48.886;8.728;2023-02-13T05:25:57;1.80;99.90
2867;DHT22;1441;48.886;8.728;2023-02-13T05:28:23;1.80;99.90
2867;DHT22;1441;48.886;8.728;2023-02-13T05:31:07;1.80;99.90
2867;DHT22;1441;48.886;8.728;2023-02-13T05:33:33;1.80;99.90
2867;DHT22;1441;48.886;8.728;2023-02-13T05:35:58;1.80;99.90
2867;DHT22;1441;48.886;8.728;2023-02-13T05:38:24;1.80;99.90
2867;DHT22;1441;48.886;8.728;2023-02-13T05:40:49;1.80;99.90
2867;DHT22;1441;48.886;8.728;2023-02-13T05:43:15;1.70;99.90
2867;DHT22;1441;48.886;8.728;2023-02-13T05:45:40;1.70;99.90
2867;DHT22;1441;48.886;8.728;2023-02-13T05:48:06;1.70;99.90
2867;DHT22;1441;48.886;8.728;2023-02-13T05:50:31;1.70;99.90
2867;DHT22;1441;48.886;8.728;2023-02-13T05:52:57;1.70;99.90
2867;DHT22;1441;48.886;8.728;2023-02-13T05:55:23;1.80;99.90
2867;DHT22;1441;48.886;8.728;2023-02-13T05:57:48;1.70;99.90
2867;DHT22;1441;48.886;8.728;2023-02-13T06:00:14;1.70;99.90
2867;DHT22;1441;48.886;8.728;2023-02-13T06:02:40;1.80;99.90
2867;DHT22;1441;48.886;8.728;2023-02-13T06:05:06;2.00;99.90
2867;DHT22;1441;48.886;8.728;2023-02-13T06:07:32;2.00;99.90
2867;DHT22;1441;48.886;8.728;2023-02-13T06:10:01;2.00;99.90
2867;DHT22;1441;48.886;8.728;2023-02-13T06:12:26;2.00;99.90
2867;DHT22;1441;48.886;8.728;2023-02-13T06:14:52;2.00;99.90
2867;DHT22;1441;48.886;8.728;2023-02-13T06:17:18;1.80;99.90
2867;DHT22;1441;48.886;8.728;2023-02-13T06:19:44;1.80;99.90
2867;DHT22;1441;48.886;8.728;2023-02-13T06:22:09;2.00;99.90
2867;DHT22;1441;48.886;8.728;2023-02-13T06:24:35;2.00;99.90
2867;DHT22;1441;48.886;8.728;2023-02-13T06:27:01;2.00;99.90
2867;DHT22;1441;48.886;8.728;2023-02-13T06:29:26;2.10;99.90
2867;DHT22;1441;48.886;8.728;2023-02-13T06:31:52;2.10;99.90
2867;DHT22;1441;48.886;8.728;2023-02-13T06:34:17;2.10;99.90
2867;DHT22;1441;48.886;8.728;2023-02-13T06:36:43;2.00;99.90
2867;DHT22;1441;48.886;8.728;2023-02-13T06:39:09;2.00;99.90
2867;DHT22;1441;48.886;8.728;2023-02-13T06:41:35;1.90;99.90
2867;DHT22;1441;48.886;8.728;2023-02-13T06:44:00;2.00;99.90
2867;DHT22;1441;48.886;8.728;2023-02-13T06:46:26;2.00;99.90
2867;DHT22;1441;48.886;8.728;2023-02-13T06:48:52;2.00;99.90
2867;DHT22;1441;48.886;8.728;2023-02-13T06:51:17;2.10;99.90
2867;DHT22;1441;48.886;8.728;2023-02-13T06:53:43;2.10;99.90
2867;DHT22;1441;48.886;8.728;2023-02-13T06:56:08;2.20;99.90
2867;DHT22;1441;48.886;8.728;2023-02-13T06:58:35;2.10;99.90
2867;DHT22;1441;48.886;8.728;2023-02-13T07:01:03;1.90;99.90
2867;DHT22;1441;48.886;8.728;2023-02-13T07:03:28;2.00;99.90
2867;DHT22;1441;48.886;8.728;2023-02-13T07:05:54;2.10;99.90
2867;DHT22;1441;48.886;8.728;2023-02-13T07:08:20;2.00;99.90
2867;DHT22;1441;48.886;8.728;2023-02-13T07:10:46;2.00;99.90
2867;DHT22;1441;48.886;8.728;2023-02-13T07:13:12;2.00;99.90
2867;DHT22;1441;48.886;8.728;2023-02-13T07:15:37;2.10;99.90
2867;DHT22;1441;48.886;8.728;2023-02-13T07:18:04;2.00;99.90
2867;DHT22;1441;48.886;8.728;2023-02-13T07:20:30;2.10;99.90
2867;DHT22;1441;48.886;8.728;2023-02-13T07:23:03;2.10;99.90
2867;DHT22;1441;48.886;8.728;2023-02-13T07:25:30;2.30;99.90
2867;DHT22;1441;48.886;8.728;2023-02-13T07:28:03;2.40;99.90
2867;DHT22;1441;48.886;8.728;2023-02-13T07:30:31;2.70;99.90
2867;DHT22;1441;48.886;8.728;2023-02-13T07:32:59;3.30;99.90
2867;DHT22;1441;48.886;8.728;2023-02-13T07:35:25;3.90;99.90
2867;DHT22;1441;48.886;8.728;2023-02-13T07:37:52;4.50;98.10
2867;DHT22;1441;48.886;8.728;2023-02-13T07:40:19;4.80;96.50
2867;DHT22;1441;48.886;8.728;2023-02-13T07:42:44;5.10;95.10
2867;DHT22;1441;48.886;8.728;2023-02-13T07:45:10;5.20;95.00
2867;DHT22;1441;48.886;8.728;2023-02-13T07:47:36;5.50;94.50
2867;DHT22;1441;48.886;8.728;2023-02-13T07:50:02;5.60;93.70
2867;DHT22;1441;48.886;8.728;2023-02-13T07:52:30;5.80;93.20
2867;DHT22;1441;48.886;8.728;2023-02-13T07:54:57;5.80;93.10
2867;DHT22;1441;48.886;8.728;2023-02-13T07:57:22;5.70;93.40
2867;DHT22;1441;48.886;8.728;2023-02-13T07:59:48;5.70;93.80
2867;DHT22;1441;48.886;8.728;2023-02-13T08:02:15;5.70;93.70
2867;DHT22;1441;48.886;8.728;2023-02-13T08:04:41;5.70;93.90
2867;DHT22;1441;48.886;8.728;2023-02-13T08:07:14;5.70;94.00
2867;DHT22;1441;48.886;8.728;2023-02-13T08:09:40;5.60;94.00
2867;DHT22;1441;48.886;8.728;2023-02-13T08:12:24;5.60;94.50
2867;DHT22;1441;48.886;8.728;2023-02-13T08:14:51;5.70;94.80
2867;DHT22;1441;48.886;8.728;2023-02-13T08:17:17;5.70;94.90
2867;DHT22;1441;48.886;8.728;2023-02-13T08:19:42;5.80;94.50
2867;DHT22;1441;48.886;8.728;2023-02-13T08:22:08;6.00;94.30
2867;DHT22;1441;48.886;8.728;2023-02-13T08:24:34;6.10;94.10
2867;DHT22;1441;48.886;8.728;2023-02-13T08:26:59;6.20;93.50
2867;DHT22;1441;48.886;8.728;2023-02-13T08:29:25;6.30;93.30
2867;DHT22;1441;48.886;8.728;2023-02-13T08:31:50;6.40;92.80
2867;DHT22;1441;48.886;8.728;2023-02-13T08:34:16;6.50;92.60
2867;DHT22;1441;48.886;8.728;2023-02-13T08:36:41;6.60;92.10
2867;DHT22;1441;48.886;8.728;2023-02-13T08:39:08;6.60;91.80
2867;DHT22;1441;48.886;8.728;2023-02-13T08:41:34;6.80;92.10
2867;DHT22;1441;48.886;8.728;2023-02-13T08:44:00;6.90;91.30
2867;DHT22;1441;48.886;8.728;2023-02-13T08:46:25;7.00;91.40
2867;DHT22;1441;48.886;8.728;2023-02-13T08:48:51;7.10;90.30
2867;DHT22;1441;48.886;8.728;2023-02-13T08:51:16;7.10;89.90
2867;DHT22;1441;48.886;8.728;2023-02-13T08:53:42;7.20;90.10
2867;DHT22;1441;48.886;8.728;2023-02-13T08:56:08;7.30;89.60
2867;DHT22;1441;48.886;8.728;2023-02-13T08:58:34;7.30;88.90
2867;DHT22;1441;48.886;8.728;2023-02-13T09:01:03;7.40;88.90
2867;DHT22;1441;48.886;8.728;2023-02-13T09:03:28;7.50;88.50
2867;DHT22;1441;48.886;8.728;2023-02-13T09:05:58;7.60;88.60
2867;DHT22;1441;48.886;8.728;2023-02-13T09:08:23;7.60;88.10
2867;DHT22;1441;48.886;8.728;2023-02-13T09:10:55;7.50;87.60
2867;DHT22;1441;48.886;8.728;2023-02-13T09:13:22;7.40;88.00
2867;DHT22;1441;48.886;8.728;2023-02-13T09:15:47;7.50;87.70
2867;DHT22;1441;48.886;8.728;2023-02-13T09:18:13;7.60;87.60
2867;DHT22;1441;48.886;8.728;2023-02-13T09:20:38;7.60;87.80
2867;DHT22;1441;48.886;8.728;2023-02-13T09:23:04;7.80;87.30
2867;DHT22;1441;48.886;8.728;2023-02-13T09:25:29;7.80;87.30
2867;DHT22;1441;48.886;8.728;2023-02-13T09:27:55;7.90;87.00
2867;DHT22;1441;48.886;8.728;2023-02-13T09:30:21;7.90;86.70
2867;DHT22;1441;48.886;8.728;2023-02-13T09:32:50;8.00;86.80
2867;DHT22;1441;48.886;8.728;2023-02-13T09:35:17;8.00;86.60
2867;DHT22;1441;48.886;8.728;2023-02-13T09:37:43;8.00;86.40
2867;DHT22;1441;48.886;8.728;2023-02-13T09:40:29;8.10;86.40
2867;DHT22;1441;48.886;8.728;2023-02-13T09:43:11;8.20;86.30
2867;DHT22;1441;48.886;8.728;2023-02-13T09:45:37;8.20;86.00
2867;DHT22;1441;48.886;8.728;2023-02-13T09:48:04;8.30;85.90
2867;DHT22;1441;48.886;8.728;2023-02-13T09:50:31;8.30;85.50
2867;DHT22;1441;48.886;8.728;2023-02-13T09:52:59;8.30;85.00
2867;DHT22;1441;48.886;8.728;2023-02-13T09:55:40;8.30;84.90
2867;DHT22;1441;48.886;8.728;2023-02-13T09:58:51;8.30;85.30
2867;DHT22;1441;48.886;8.728;2023-02-13T10:01:29;8.40;85.20
2867;DHT22;1441;48.886;8.728;2023-02-13T10:10:16;8.50;84.70
2867;DHT22;1441;48.886;8.728;2023-02-13T10:18:13;8.60;84.10
2867;DHT22;1441;48.886;8.728;2023-02-13T10:20:58;8.70;86.30
2867;DHT22;1441;48.886;8.728;2023-02-13T10:23:43;8.70;85.70
2867;DHT22;1441;48.886;8.728;2023-02-13T10:26:18;8.60;83.60
2867;DHT22;1441;48.886;8.728;2023-02-13T10:29:02;8.70;83.30
2867;DHT22;1441;48.886;8.728;2023-02-13T10:31:49;8.80;83.30
2867;DHT22;1441;48.886;8.728;2023-02-13T10:34:17;8.90;82.90
2867;DHT22;1441;48.886;8.728;2023-02-13T10:36:46;8.90;82.70
2867;DHT22;1441;48.886;8.728;2023-02-13T10:39:27;9.00;82.30
2867;DHT22;1441;48.886;8.728;2023-02-13T10:42:15;9.00;82.40
2867;DHT22;1441;48.886;8.728;2023-02-13T10:47:57;9.10;82.20
2867;DHT22;1441;48.886;8.728;2023-02-13T11:02:00;9.20;82.10
2867;DHT22;1441;48.886;8.728;2023-02-13T11:04:28;9.30;82.20
2867;DHT22;1441;48.886;8.728;2023-02-13T11:06:59;9.40;82.50
2867;DHT22;1441;48.886;8.728;2023-02-13T11:09:25;9.60;82.30
2867;DHT22;1441;48.886;8.728;2023-02-13T11:11:51;9.60;81.50
2867;DHT22;1441;48.886;8.728;2023-02-13T11:14:25;9.70;81.50
2867;DHT22;1441;48.886;8.728;2023-02-13T11:19:49;9.60;81.90
2867;DHT22;1441;48.886;8.728;2023-02-13T11:24:55;9.60;81.80
2867;DHT22;1441;48.886;8.728;2023-02-13T11:27:34;9.70;81.90
2867;DHT22;1441;48.886;8.728;2023-02-13T11:30:05;9.70;80.80
2867;DHT22;1441;48.886;8.728;2023-02-13T11:32:33;9.70;80.80
2867;DHT22;1441;48.886;8.728;2023-02-13T11:35:29;9.70;80.60
2867;DHT22;1441;48.886;8.728;2023-02-13T11:40:35;9.90;80.60
2867;DHT22;1441;48.886;8.728;2023-02-13T11:43:03;9.80;79.60
2867;DHT22;1441;48.886;8.728;2023-02-13T11:45:30;9.80;80.00
2867;DHT22;1441;48.886;8.728;2023-02-13T11:47:56;9.80;79.90
2867;DHT22;1441;48.886;8.728;2023-02-13T11:50:35;9.70;79.50
2867;DHT22;1441;48.886;8.728;2023-02-13T11:53:06;9.80;79.70
2867;DHT22;1441;48.886;8.728;2023-02-13T11:55:37;9.90;79.90
2867;DHT22;1441;48.886;8.728;2023-02-13T11:58:24;9.90;80.00
2867;DHT22;1441;48.886;8.728;2023-02-13T12:01:08;10.00;79.00
2867;DHT22;1441;48.886;8.728;2023-02-13T12:03:34;10.00;78.50
2867;DHT22;1441;48.886;8.728;2023-02-13T12:08:35;10.10;78.60
2867;DHT22;1441;48.886;8.728;2023-02-13T12:11:05;10.10;78.30
2867;DHT22;1441;48.886;8.728;2023-02-13T12:13:35;10.10;77.90
2867;DHT22;1441;48.886;8.728;2023-02-13T12:16:12;10.20;75.50
2867;DHT22;1441;48.886;8.728;2023-02-13T12:18:44;10.20;76.00
2867;DHT22;1441;48.886;8.728;2023-02-13T12:23:52;10.30;75.40
2867;DHT22;1441;48.886;8.728;2023-02-13T12:26:33;10.20;75.40
2867;DHT22;1441;48.886;8.728;2023-02-13T12:34:51;10.00;75.20
2867;DHT22;1441;48.886;8.728;2023-02-13T12:46:08;10.20;76.80
2867;DHT22;1441;48.886;8.728;2023-02-13T12:54:04;10.50;75.90
2867;DHT22;1441;48.886;8.728;2023-02-13T12:56:50;10.50;76.00
2867;DHT22;1441;48.886;8.728;2023-02-13T12:59:50;10.60;75.40
2867;DHT22;1441;48.886;8.728;2023-02-13T13:08:17;10.80;75.90
2867;DHT22;1441;48.886;8.728;2023-02-13T13:11:07;10.90;74.10
2867;DHT22;1441;48.886;8.728;2023-02-13T13:16:25;11.00;74.70
2867;DHT22;1441;48.886;8.728;2023-02-13T13:19:23;11.00;75.60
2867;DHT22;1441;48.886;8.728;2023-02-13T13:27:02;11.40;75.70
2867;DHT22;1441;48.886;8.728;2023-02-13T13:29:37;11.40;75.80
2867;DHT22;1441;48.886;8.728;2023-02-13T13:32:07;11.30;76.50
2867;DHT22;1441;48.886;8.728;2023-02-13T13:34:37;11.30;76.10
2867;DHT22;1441;48.886;8.728;2023-02-13T13:45:18;11.50;75.90
2867;DHT22;1441;48.886;8.728;2023-02-13T13:50:30;11.60;76.20
2867;DHT22;1441;48.886;8.728;2023-02-13T13:53:20;11.60;76.00
2867;DHT22;1441;48.886;8.728;2023-02-13T13:58:44;11.60;75.80
2867;DHT22;1441;48.886;8.728;2023-02-13T14:03:40;11.80;75.60
2867;DHT22;1441;48.886;8.728;2023-02-13T14:06:09;11.70;75.90
2867;DHT22;1441;48.886;8.728;2023-02-13T14:11:05;11.90;75.30
2867;DHT22;1441;48.886;8.728;2023-02-13T14:13:38;11.80;75.70
2867;DHT22;1441;48.886;8.728;2023-02-13T14:16:09;11.90;76.40
2867;DHT22;1441;48.886;8.728;2023-02-13T14:18:36;11.90;77.30
2867;DHT22;1441;48.886;8.728;2023-02-13T14:21:04;12.00;76.60
2867;DHT22;1441;48.886;8.728;2023-02-13T14:26:33;12.00;76.50
2867;DHT22;1441;48.886;8.728;2023-02-13T14:29:20;12.10;76.40
2867;DHT22;1441;48.886;8.728;2023-02-13T14:32:14;12.20;76.40
2867;DHT22;1441;48.886;8.728;2023-02-13T14:34:42;12.20;76.00
2867;DHT22;1441;48.886;8.728;2023-02-13T14:37:20;12.20;76.00
2867;DHT22;1441;48.886;8.728;2023-02-13T14:42:45;12.10;75.60
2867;DHT22;1441;48.886;8.728;2023-02-13T14:45:17;12.00;76.00
2867;DHT22;1441;48.886;8.728;2023-02-13T14:47:51;12.00;75.90
2867;DHT22;1441;48.886;8.728;2023-02-13T14:50:41;12.00;76.00
2867;DHT22;1441;48.886;8.728;2023-02-13T14:53:25;12.00;76.10
2867;DHT22;1441;48.886;8.728;2023-02-13T14:56:04;12.10;75.70
2867;DHT22;1441;48.886;8.728;2023-02-13T14:58:33;12.20;75.20
2867;DHT22;1441;48.886;8.728;2023-02-13T15:03:48;12.20;75.00
2867;DHT22;1441;48.886;8.728;2023-02-13T15:06:30;12.20;75.00
2867;DHT22;1441;48.886;8.728;2023-02-13T15:09:00;12.10;75.20
2867;DHT22;1441;48.886;8.728;2023-02-13T15:11:38;12.00;75.30
2867;DHT22;1441;48.886;8.728;2023-02-13T15:14:22;11.90;75.50
2867;DHT22;1441;48.886;8.728;2023-02-13T15:16:56;12.00;75.50
2867;DHT22;1441;48.886;8.728;2023-02-13T15:19:23;12.10;75.30
2867;DHT22;1441;48.886;8.728;2023-02-13T15:21:56;11.90;74.90
2867;DHT22;1441;48.886;8.728;2023-02-13T15:24:23;12.00;75.50
2867;DHT22;1441;48.886;8.728;2023-02-13T15:27:00;11.90;75.20
2867;DHT22;1441;48.886;8.728;2023-02-13T15:29:27;11.90;75.30
2867;DHT22;1441;48.886;8.728;2023-02-13T15:31:52;11.90;75.30
2867;DHT22;1441;48.886;8.728;2023-02-13T15:36:48;11.70;75.40
2867;DHT22;1441;48.886;8.728;2023-02-13T15:39:26;11.60;75.80
2867;DHT22;1441;48.886;8.728;2023-02-13T15:41:54;11.30;76.00
2867;DHT22;1441;48.886;8.728;2023-02-13T15:44:29;11.20;76.40
2867;DHT22;1441;48.886;8.728;2023-02-13T15:47:04;11.00;76.70
2867;DHT22;1441;48.886;8.728;2023-02-13T15:49:36;10.90;77.30
2867;DHT22;1441;48.886;8.728;2023-02-13T15:52:17;10.80;77.50
2867;DHT22;1441;48.886;8.728;2023-02-13T15:54:53;10.70;77.70
2867;DHT22;1441;48.886;8.728;2023-02-13T15:57:20;10.70;77.90
2867;DHT22;1441;48.886;8.728;2023-02-13T15:59:46;10.60;78.00
2867;DHT22;1441;48.886;8.728;2023-02-13T16:02:35;10.60;78.00
2867;DHT22;1441;48.886;8.728;2023-02-13T16:05:04;10.50;78.40
2867;DHT22;1441;48.886;8.728;2023-02-13T16:07:46;10.50;78.30
2867;DHT22;1441;48.886;8.728;2023-02-13T16:10:26;10.40;78.80
2867;DHT22;1441;48.886;8.728;2023-02-13T16:12:52;10.30;78.70
2867;DHT22;1441;48.886;8.728;2023-02-13T16:15:20;10.20;78.90
2867;DHT22;1441;48.886;8.728;2023-02-13T16:17:46;10.10;79.10
2867;DHT22;1441;48.886;8.728;2023-02-13T16:25:17;10.00;79.70
2867;DHT22;1441;48.886;8.728;2023-02-13T16:27:45;9.90;79.90
2867;DHT22;1441;48.886;8.728;2023-02-13T16:32:48;9.80;80.30
2867;DHT22;1441;48.886;8.728;2023-02-13T16:35:27;9.80;80.50
2867;DHT22;1441;48.886;8.728;2023-02-13T16:38:00;9.70;80.60
2867;DHT22;1441;48.886;8.728;2023-02-13T16:42:52;9.50;81.40
2867;DHT22;1441;48.886;8.728;2023-02-13T16:45:22;9.30;81.70
2867;DHT22;1441;48.886;8.728;2023-02-13T16:47:57;9.30;81.90
2867;DHT22;1441;48.886;8.728;2023-02-13T16:50:22;9.20;82.30
2867;DHT22;1441;48.886;8.728;2023-02-13T16:52:48;9.10;82.60
2867;DHT22;1441;48.886;8.728;2023-02-13T16:55:14;9.00;82.80
2867;DHT22;1441;48.886;8.728;2023-02-13T16:57:41;9.00;82.70
2867;DHT22;1441;48.886;8.728;2023-02-13T17:02:40;8.80;83.20
2867;DHT22;1441;48.886;8.728;2023-02-13T17:07:49;8.70;83.70
2867;DHT22;1441;48.886;8.728;2023-02-13T17:12:52;8.50;84.30
2867;DHT22;1441;48.886;8.728;2023-02-13T17:15:21;8.50;84.40
2867;DHT22;1441;48.886;8.728;2023-02-13T17:17:48;8.50;84.50
2867;DHT22;1441;48.886;8.728;2023-02-13T17:20:17;8.40;84.80
2867;DHT22;1441;48.886;8.728;2023-02-13T17:22:48;8.40;85.20
2867;DHT22;1441;48.886;8.728;2023-02-13T17:27:43;8.20;85.60
2867;DHT22;1441;48.886;8.728;2023-02-13T17:30:16;8.20;85.70
2867;DHT22;1441;48.886;8.728;2023-02-13T17:32:46;8.10;86.20
2867;DHT22;1441;48.886;8.728;2023-02-13T17:35:13;8.00;86.40
2867;DHT22;1441;48.886;8.728;2023-02-13T17:37:40;7.90;86.70
2867;DHT22;1441;48.886;8.728;2023-02-13T17:40:07;7.90;86.80
2867;DHT22;1441;48.886;8.728;2023-02-13T17:42:34;7.90;86.90
2867;DHT22;1441;48.886;8.728;2023-02-13T17:45:00;7.90;87.10
2867;DHT22;1441;48.886;8.728;2023-02-13T17:47:26;7.90;87.30
2867;DHT22;1441;48.886;8.728;2023-02-13T17:49:52;7.90;87.40
2867;DHT22;1441;48.886;8.728;2023-02-13T17:52:20;7.90;87.50
2867;DHT22;1441;48.886;8.728;2023-02-13T17:54:46;8.00;87.30
2867;DHT22;1441;48.886;8.728;2023-02-13T17:57:13;8.00;87.40
2867;DHT22;1441;48.886;8.728;2023-02-13T17:59:39;7.90;87.30
2867;DHT22;1441;48.886;8.728;2023-02-13T18:02:16;7.90;87.50
2867;DHT22;1441;48.886;8.728;2023-02-13T18:04:43;7.80;87.70
2867;DHT22;1441;48.886;8.728;2023-02-13T18:07:10;7.80;87.70
2867;DHT22;1441;48.886;8.728;2023-02-13T18:09:36;7.80;87.70
2867;DHT22;1441;48.886;8.728;2023-02-13T18:12:02;7.80;87.90
2867;DHT22;1441;48.886;8.728;2023-02-13T18:14:30;7.70;88.30
2867;DHT22;1441;48.886;8.728;2023-02-13T18:16:55;7.70;88.20
2867;DHT22;1441;48.886;8.728;2023-02-13T18:19:21;7.60;88.30
2867;DHT22;1441;48.886;8.728;2023-02-13T18:21:46;7.50;88.60
2867;DHT22;1441;48.886;8.728;2023-02-13T18:24:12;7.50;88.80
2867;DHT22;1441;48.886;8.728;2023-02-13T18:26:37;7.50;88.80
2867;DHT22;1441;48.886;8.728;2023-02-13T18:29:03;7.40;89.10
2867;DHT22;1441;48.886;8.728;2023-02-13T18:31:28;7.40;89.20
2867;DHT22;1441;48.886;8.728;2023-02-13T18:33:54;7.40;89.30
2867;DHT22;1441;48.886;8.728;2023-02-13T18:36:20;7.40;89.20
2867;DHT22;1441;48.886;8.728;2023-02-13T18:38:45;7.40;89.40
2867;DHT22;1441;48.886;8.728;2023-02-13T18:41:11;7.30;89.40
2867;DHT22;1441;48.886;8.728;2023-02-13T18:43:36;7.30;89.60
2867;DHT22;1441;48.886;8.728;2023-02-13T18:46:02;7.30;89.50
2867;DHT22;1441;48.886;8.728;2023-02-13T18:48:30;7.20;89.60
2867;DHT22;1441;48.886;8.728;2023-02-13T18:50:58;7.20;89.60
2867;DHT22;1441;48.886;8.728;2023-02-13T18:53:24;7.20;89.60
2867;DHT22;1441;48.886;8.728;2023-02-13T18:55:58;7.10;90.00
2867;DHT22;1441;48.886;8.728;2023-02-13T18:58:25;7.00;90.00
2867;DHT22;1441;48.886;8.728;2023-02-13T19:00:50;7.00;90.20
2867;DHT22;1441;48.886;8.728;2023-02-13T19:03:16;7.00;90.20
2867;DHT22;1441;48.886;8.728;2023-02-13T19:05:41;7.10;90.10
2867;DHT22;1441;48.886;8.728;2023-02-13T19:08:07;7.00;90.30
2867;DHT22;1441;48.886;8.728;2023-02-13T19:10:33;6.90;90.50
2867;DHT22;1441;48.886;8.728;2023-02-13T19:12:58;7.00;90.50
2867;DHT22;1441;48.886;8.728;2023-02-13T19:15:24;6.90;90.60
2867;DHT22;1441;48.886;8.728;2023-02-13T19:17:49;6.90;90.80